Time;durP1;ratioP1;P1;durP2;ratioP2;P2;SDS_P1;SDS_P2;PMS_P1;PMS_P2;Temp;Humidity;BMP_temperature;BMP_pressure;BME280_temperature;BME280_humidity;BME280_pressure;Samples;Min_cycle;Max_cycle;Signal;HPM_P1;HPM_P2
2024/01/09 00:00:45;;;;;;;53.07;18.13;;;-9.90;99.90;;;;;;4963774;28;20698;-77
2024/01/09 00:03:15;;;;;;;63.77;18.00;;;-10.00;99.90;;;;;;4983568;28;20223;-78
2024/01/09 00:05:44;;;;;;;50.77;18.17;;;-9.90;99.90;;;;;;4967347;28;20219;-77
2024/01/09 00:08:13;;;;;;;48.77;16.97;;;-9.70;99.90;;;;;;4985092;28;20801;-80
2024/01/09 00:10:41;;;;;;;53.80;18.67;;;-9.90;99.90;;;;;;4969942;28;20760;-78
2024/01/09 00:13:10;;;;;;;40.53;15.27;;;-9.70;99.90;;;;;;4982750;28;20665;-78
2024/01/09 00:15:39;;;;;;;50.60;16.80;;;-9.70;99.90;;;;;;4981753;28;20238;-80
2024/01/09 00:18:07;;;;;;;50.43;17.20;;;-9.60;99.90;;;;;;4964904;28;20334;-78
2024/01/09 00:20:38;;;;;;;57.57;17.17;;;-9.60;99.90;;;;;;4968463;28;20261;-78
2024/01/09 00:23:07;;;;;;;55.73;17.53;;;-9.60;99.90;;;;;;4981378;28;20343;-75
2024/01/09 00:25:35;;;;;;;49.70;17.30;;;-9.50;99.90;;;;;;4978268;28;20570;-77
2024/01/09 00:28:04;;;;;;;54.23;17.53;;;-9.40;99.90;;;;;;4970521;28;20229;-76
2024/01/09 00:30:33;;;;;;;46.80;17.17;;;-9.20;99.90;;;;;;4972156;28;21004;-74
2024/01/09 00:33:03;;;;;;;48.60;17.30;;;-9.00;99.90;;;;;;4980903;28;20258;-75
2024/01/09 00:35:32;;;;;;;54.37;19.13;;;-9.20;99.90;;;;;;4981519;28;20231;-76
2024/01/09 00:38:02;;;;;;;47.67;17.87;;;-9.10;99.90;;;;;;4974868;28;20241;-80
2024/01/09 00:40:31;;;;;;;50.50;17.00;;;-9.00;99.90;;;;;;4966637;28;20219;-79
2024/01/09 00:42:59;;;;;;;54.40;17.93;;;-8.80;99.90;;;;;;4971011;28;20234;-78
2024/01/09 00:45:28;;;;;;;51.67;18.40;;;-8.90;99.90;;;;;;4977734;28;20245;-78
2024/01/09 00:47:56;;;;;;;51.37;17.27;;;-8.90;99.90;;;;;;4981071;28;20409;-79
2024/01/09 00:50:25;;;;;;;54.07;19.30;;;-8.90;99.90;;;;;;4987107;28;20322;-78
2024/01/09 00:52:54;;;;;;;50.20;17.70;;;-8.90;99.90;;;;;;4983196;28;20305;-79
2024/01/09 00:55:24;;;;;;;53.60;17.97;;;-8.80;99.90;;;;;;4966955;28;20234;-79
2024/01/09 00:57:53;;;;;;;51.83;18.47;;;-8.70;99.90;;;;;;4981726;28;20231;-78
2024/01/09 01:00:21;;;;;;;55.70;18.40;;;-8.70;99.90;;;;;;4971753;28;20246;-78
2024/01/09 01:02:50;;;;;;;55.87;19.37;;;-8.80;99.90;;;;;;4965334;28;20318;-79
2024/01/09 01:05:19;;;;;;;52.73;17.83;;;-8.80;99.90;;;;;;4979168;28;20575;-80
2024/01/09 01:07:48;;;;;;;52.50;17.93;;;-8.70;99.90;;;;;;4966884;28;20257;-78
2024/01/09 01:10:17;;;;;;;47.03;17.97;;;-8.70;99.90;;;;;;4981530;28;20251;-77
2024/01/09 01:12:49;;;;;;;55.30;18.23;;;-8.80;99.90;;;;;;4986736;28;20237;-74
2024/01/09 01:15:18;;;;;;;47.43;17.63;;;-8.70;99.90;;;;;;4992162;28;20231;-76
2024/01/09 01:17:46;;;;;;;51.00;18.07;;;-8.70;99.90;;;;;;4981858;28;20285;-76
2024/01/09 01:20:16;;;;;;;57.87;18.33;;;-8.80;99.90;;;;;;4975385;28;20706;-76
2024/01/09 01:22:44;;;;;;;55.53;18.17;;;-8.80;99.90;;;;;;4980599;28;20722;-77
2024/01/09 01:25:13;;;;;;;48.40;18.40;;;-8.70;99.90;;;;;;4990793;28;20260;-78
2024/01/09 01:27:41;;;;;;;53.27;18.60;;;-8.70;99.90;;;;;;4982354;28;20806;-79
2024/01/09 01:30:11;;;;;;;54.17;19.07;;;-8.60;99.90;;;;;;4982623;28;20372;-78
2024/01/09 01:32:40;;;;;;;56.47;18.80;;;-8.60;99.90;;;;;;4968983;28;20697;-78
2024/01/09 01:35:09;;;;;;;55.57;19.60;;;-8.60;99.90;;;;;;4988171;28;20731;-76
2024/01/09 01:37:38;;;;;;;46.17;18.03;;;-8.60;99.90;;;;;;4981358;28;20750;-78
2024/01/09 01:40:08;;;;;;;56.07;19.33;;;-8.50;99.90;;;;;;4967704;28;20585;-78
2024/01/09 01:42:36;;;;;;;54.00;18.73;;;-8.50;99.90;;;;;;4971325;28;20733;-76
2024/01/09 01:45:16;;;;;;;49.97;18.10;;;-8.40;99.90;;;;;;4969856;28;20769;-75
2024/01/09 01:47:47;;;;;;;49.33;18.27;;;-8.40;99.90;;;;;;4963656;28;20307;-77
2024/01/09 01:50:16;;;;;;;59.27;18.83;;;-8.40;99.90;;;;;;4983997;28;20296;-78
2024/01/09 01:52:47;;;;;;;49.37;17.97;;;-8.40;99.90;;;;;;4989259;28;20223;-77
2024/01/09 01:55:20;;;;;;;51.07;18.23;;;-8.50;99.90;;;;;;4971443;28;20231;-79
2024/01/09 01:57:50;;;;;;;50.63;18.10;;;-8.40;99.90;;;;;;4984587;28;20234;-79
2024/01/09 02:00:22;;;;;;;55.77;18.73;;;-8.40;99.90;;;;;;4976216;28;20334;-78
2024/01/09 02:02:53;;;;;;;54.40;17.97;;;-8.40;99.90;;;;;;4982042;28;20338;-78
2024/01/09 02:05:25;;;;;;;56.13;19.70;;;-8.40;99.90;;;;;;4982008;28;20660;-79
2024/01/09 02:07:54;;;;;;;48.90;18.40;;;-8.50;99.90;;;;;;4977435;28;20239;-77
2024/01/09 02:10:24;;;;;;;63.27;19.77;;;-8.50;99.90;;;;;;4982170;28;20647;-77
2024/01/09 02:12:52;;;;;;;55.03;20.43;;;-8.30;99.90;;;;;;4984550;28;20252;-77
2024/01/09 02:15:23;;;;;;;45.60;17.60;;;-8.30;99.90;;;;;;4985425;28;20231;-77
2024/01/09 02:17:51;;;;;;;56.47;19.93;;;-8.30;99.90;;;;;;4927662;28;1355994;-76
2024/01/09 02:20:22;;;;;;;50.17;19.60;;;-8.20;99.90;;;;;;4984057;28;20318;-77
2024/01/09 02:22:51;;;;;;;56.60;19.70;;;-8.10;99.90;;;;;;4981530;28;20230;-76
2024/01/09 02:25:20;;;;;;;53.80;18.07;;;-8.10;99.90;;;;;;4990147;28;20314;-77
2024/01/09 02:27:57;;;;;;;46.63;17.27;;;-8.00;99.90;;;;;;4985192;28;20643;-74
2024/01/09 02:30:28;;;;;;;54.77;18.33;;;-8.00;99.90;;;;;;4966051;28;20219;-77
2024/01/09 02:32:58;;;;;;;46.47;17.37;;;-8.10;99.90;;;;;;4981762;28;20241;-78
2024/01/09 02:35:27;;;;;;;51.53;17.80;;;-8.10;99.90;;;;;;4968995;28;20574;-76
2024/01/09 02:37:56;;;;;;;50.43;17.83;;;-8.10;99.90;;;;;;4984590;28;20291;-77
2024/01/09 02:40:24;;;;;;;52.70;19.30;;;-8.20;99.90;;;;;;4970779;28;20354;-77
2024/01/09 02:42:53;;;;;;;59.13;19.10;;;-8.20;99.90;;;;;;4973032;28;20227;-76
2024/01/09 02:45:22;;;;;;;49.00;18.23;;;-8.10;99.90;;;;;;4981275;28;20230;-76
2024/01/09 02:47:52;;;;;;;57.37;18.70;;;-8.10;99.90;;;;;;4988148;28;20259;-73
2024/01/09 02:50:21;;;;;;;57.00;19.13;;;-8.10;99.90;;;;;;4971844;28;20956;-76
2024/01/09 02:52:50;;;;;;;52.27;18.27;;;-8.10;99.90;;;;;;4974848;28;20231;-73
2024/01/09 02:55:18;;;;;;;56.67;18.67;;;-8.00;99.90;;;;;;4992085;28;20248;-74
2024/01/09 02:57:47;;;;;;;52.80;19.97;;;-8.00;99.90;;;;;;4989823;28;20235;-75
2024/01/09 03:00:16;;;;;;;46.83;18.37;;;-8.10;99.90;;;;;;4992017;28;20239;-76
2024/01/09 03:02:44;;;;;;;51.30;18.67;;;-8.00;99.90;;;;;;4986117;28;20239;-74
2024/01/09 03:05:14;;;;;;;50.53;18.23;;;-8.00;99.90;;;;;;4985402;28;20238;-74
2024/01/09 03:07:43;;;;;;;49.50;17.87;;;-8.00;99.90;;;;;;4973260;28;20215;-74
2024/01/09 03:10:12;;;;;;;52.60;18.90;;;-8.10;99.90;;;;;;4996557;28;20243;-72
2024/01/09 03:12:41;;;;;;;48.60;18.70;;;-8.10;99.90;;;;;;4976342;28;20798;-72
2024/01/09 03:15:10;;;;;;;53.87;18.90;;;-8.00;99.90;;;;;;4997504;28;20239;-72
2024/01/09 03:17:39;;;;;;;53.40;18.20;;;-7.90;99.90;;;;;;4986908;28;20378;-73
2024/01/09 03:20:10;;;;;;;51.13;18.93;;;-7.90;99.90;;;;;;4992353;28;20252;-75
2024/01/09 03:22:40;;;;;;;49.30;18.93;;;-7.90;99.90;;;;;;4994624;28;20339;-74
2024/01/09 03:25:08;;;;;;;57.43;19.87;;;-7.90;99.90;;;;;;4986273;28;20262;-74
2024/01/09 03:27:37;;;;;;;53.43;19.17;;;-7.80;99.90;;;;;;4985676;28;20274;-73
2024/01/09 03:30:07;;;;;;;52.07;19.33;;;-7.90;99.90;;;;;;4985932;28;20280;-74
2024/01/09 03:32:36;;;;;;;57.20;20.10;;;-8.00;99.90;;;;;;4981399;28;20314;-76
2024/01/09 03:35:05;;;;;;;54.33;19.97;;;-8.00;99.90;;;;;;4982371;28;20225;-76
2024/01/09 03:37:34;;;;;;;60.03;20.83;;;-8.10;99.90;;;;;;4984666;28;20224;-75
2024/01/09 03:40:04;;;;;;;58.90;19.43;;;-8.10;99.90;;;;;;4978201;28;20313;-77
2024/01/09 03:42:33;;;;;;;49.13;19.50;;;-8.00;99.90;;;;;;4984821;28;20252;-77
2024/01/09 03:45:01;;;;;;;64.73;20.53;;;-8.10;99.90;;;;;;4978752;28;20251;-77
2024/01/09 03:47:30;;;;;;;51.43;20.23;;;-8.00;99.90;;;;;;4980875;28;20240;-77
2024/01/09 03:49:59;;;;;;;57.60;20.53;;;-8.10;99.90;;;;;;4988783;28;20224;-75
2024/01/09 03:52:27;;;;;;;48.67;18.40;;;-8.10;99.90;;;;;;4993361;28;20285;-76
2024/01/09 03:54:56;;;;;;;58.77;21.07;;;-8.10;99.90;;;;;;4977925;28;20251;-76
2024/01/09 03:57:26;;;;;;;53.10;20.37;;;-8.20;99.90;;;;;;4984971;28;21020;-77
2024/01/09 03:59:55;;;;;;;57.00;20.03;;;-8.20;99.90;;;;;;4962370;28;20850;-77
2024/01/09 04:02:23;;;;;;;62.20;20.70;;;-8.10;99.90;;;;;;4969149;28;20312;-76
2024/01/09 04:04:52;;;;;;;53.10;19.90;;;-8.10;99.90;;;;;;4986677;28;20296;-77
2024/01/09 04:07:21;;;;;;;59.77;20.60;;;-8.20;99.90;;;;;;4987660;28;20711;-76
2024/01/09 04:09:49;;;;;;;57.50;21.07;;;-8.20;99.90;;;;;;4985044;28;20229;-75
2024/01/09 04:12:18;;;;;;;62.67;20.77;;;-8.20;99.90;;;;;;4985041;28;20265;-75
2024/01/09 04:14:48;;;;;;;66.53;21.93;;;-8.10;99.90;;;;;;4965229;28;20363;-76
2024/01/09 04:17:17;;;;;;;54.50;22.40;;;-8.00;99.90;;;;;;4980818;28;20241;-78
2024/01/09 04:19:46;;;;;;;57.33;22.03;;;-8.10;99.90;;;;;;4986589;28;20239;-77
2024/01/09 04:22:14;;;;;;;69.67;22.37;;;-8.20;99.90;;;;;;4983790;28;20240;-75
2024/01/09 04:24:43;;;;;;;59.47;20.43;;;-8.10;99.90;;;;;;4972935;28;20701;-75
2024/01/09 04:27:11;;;;;;;51.27;21.20;;;-8.10;99.90;;;;;;4988388;28;20316;-77
2024/01/09 04:29:40;;;;;;;59.80;21.77;;;-8.00;99.90;;;;;;4986955;28;20279;-79
2024/01/09 04:32:10;;;;;;;57.73;20.53;;;-7.90;99.90;;;;;;4983531;28;20256;-76
2024/01/09 04:34:38;;;;;;;63.43;21.67;;;-8.00;99.90;;;;;;4980062;28;20213;-76
2024/01/09 04:37:07;;;;;;;58.27;20.87;;;-8.00;99.90;;;;;;4967069;28;20684;-76
2024/01/09 04:39:36;;;;;;;65.17;21.87;;;-8.10;99.90;;;;;;4959073;28;20311;-78
2024/01/09 04:42:04;;;;;;;59.97;21.50;;;-8.10;99.90;;;;;;4984260;28;20217;-77
2024/01/09 04:44:33;;;;;;;69.43;23.07;;;-8.10;99.90;;;;;;4978566;28;20603;-77
2024/01/09 04:47:02;;;;;;;59.37;20.17;;;-8.10;99.90;;;;;;4976281;28;20226;-78
2024/01/09 04:49:33;;;;;;;63.43;21.13;;;-8.10;99.90;;;;;;4965278;28;20224;-76
2024/01/09 04:52:01;;;;;;;59.03;21.67;;;-8.00;99.90;;;;;;4969515;28;20310;-78
2024/01/09 04:54:30;;;;;;;60.83;21.00;;;-8.00;99.90;;;;;;4979477;28;20324;-75
2024/01/09 04:56:59;;;;;;;63.97;20.93;;;-8.00;99.90;;;;;;4968295;28;20227;-76
2024/01/09 04:59:28;;;;;;;60.77;22.03;;;-8.10;99.90;;;;;;4983689;28;20527;-73
2024/01/09 05:01:56;;;;;;;63.17;21.97;;;-8.20;99.90;;;;;;4983453;28;20234;-76
2024/01/09 05:04:25;;;;;;;61.60;22.60;;;-8.20;99.90;;;;;;4963390;28;20230;-76
2024/01/09 05:06:54;;;;;;;59.13;22.57;;;-8.10;99.90;;;;;;4978684;28;20454;-75
2024/01/09 05:09:23;;;;;;;65.50;22.47;;;-8.10;99.90;;;;;;4967048;28;20312;-76
2024/01/09 05:11:51;;;;;;;60.30;22.73;;;-8.10;99.90;;;;;;4984834;28;21035;-76
2024/01/09 05:14:20;;;;;;;64.27;21.97;;;-8.20;99.90;;;;;;4969183;28;20232;-76
2024/01/09 05:16:49;;;;;;;59.80;22.57;;;-8.00;99.90;;;;;;4981602;28;20219;-76
2024/01/09 05:19:17;;;;;;;66.10;23.57;;;-8.10;99.90;;;;;;4964047;28;20599;-77
2024/01/09 05:21:47;;;;;;;68.27;24.10;;;-8.20;99.90;;;;;;4980942;28;20235;-76
2024/01/09 05:24:17;;;;;;;71.20;25.50;;;-8.20;99.90;;;;;;4968891;28;20348;-76
2024/01/09 05:26:45;;;;;;;70.53;24.67;;;-8.10;99.90;;;;;;4964169;28;20217;-76
2024/01/09 05:29:14;;;;;;;75.17;26.20;;;-8.00;99.90;;;;;;4988415;28;20266;-77
2024/01/09 05:31:44;;;;;;;77.50;25.17;;;-8.20;99.90;;;;;;4975706;28;20310;-77
2024/01/09 05:34:13;;;;;;;69.77;25.07;;;-8.30;99.90;;;;;;4967464;28;20236;-77
2024/01/09 05:36:41;;;;;;;74.50;26.13;;;-8.30;99.90;;;;;;4978107;28;20304;-78
2024/01/09 05:39:10;;;;;;;70.50;25.37;;;-8.10;99.90;;;;;;4982797;28;20233;-79
2024/01/09 05:41:40;;;;;;;73.60;26.10;;;-8.20;99.90;;;;;;4959845;28;20349;-78
2024/01/09 05:44:09;;;;;;;73.20;26.90;;;-8.30;99.90;;;;;;4980628;28;20231;-77
2024/01/09 05:46:37;;;;;;;80.10;26.97;;;-8.30;99.90;;;;;;4981614;28;20239;-77
2024/01/09 05:49:06;;;;;;;86.20;28.53;;;-8.20;99.90;;;;;;4982180;28;20410;-77
2024/01/09 05:51:35;;;;;;;95.63;29.43;;;-8.20;99.90;;;;;;4982384;28;20959;-78
2024/01/09 05:54:03;;;;;;;87.27;29.80;;;-8.20;99.90;;;;;;4984776;28;21164;-76
2024/01/09 05:56:32;;;;;;;86.60;29.50;;;-8.30;99.90;;;;;;4981138;28;20219;-76
2024/01/09 05:59:02;;;;;;;81.83;30.23;;;-8.30;99.90;;;;;;4977693;28;20711;-76
2024/01/09 06:01:31;;;;;;;90.23;30.30;;;-8.30;99.90;;;;;;4976601;28;20717;-76
2024/01/09 06:03:59;;;;;;;82.10;30.10;;;-8.40;99.90;;;;;;4975687;28;20244;-76
2024/01/09 06:06:28;;;;;;;85.77;29.23;;;-8.40;99.90;;;;;;4963776;28;20306;-75
2024/01/09 06:08:56;;;;;;;85.37;29.17;;;-8.40;99.90;;;;;;4971462;28;20673;-75
2024/01/09 06:11:26;;;;;;;88.93;30.70;;;-8.30;99.90;;;;;;4981892;28;20222;-75
2024/01/09 06:13:55;;;;;;;82.73;28.80;;;-8.30;99.90;;;;;;4984635;28;20227;-75
2024/01/09 06:16:26;;;;;;;85.23;28.33;;;-8.10;99.90;;;;;;4963985;28;20240;-76
2024/01/09 06:18:54;;;;;;;75.63;26.40;;;-8.10;99.90;;;;;;4964169;28;20235;-75
2024/01/09 06:21:23;;;;;;;77.23;26.37;;;-8.20;99.90;;;;;;4985240;28;20225;-75
2024/01/09 06:23:51;;;;;;;84.13;30.10;;;-8.20;99.90;;;;;;4986296;28;20236;-76
2024/01/09 06:26:20;;;;;;;80.83;27.93;;;-8.10;99.90;;;;;;4994360;28;20232;-75
2024/01/09 06:28:49;;;;;;;72.67;26.87;;;-8.20;99.90;;;;;;4988197;28;20300;-75
2024/01/09 06:31:17;;;;;;;72.03;26.10;;;-8.10;99.90;;;;;;4965561;28;20233;-74
2024/01/09 06:33:47;;;;;;;87.83;28.93;;;-8.10;99.90;;;;;;4980253;28;20221;-75
2024/01/09 06:36:16;;;;;;;83.67;28.03;;;-8.00;99.90;;;;;;4982947;28;20317;-75
2024/01/09 06:38:44;;;;;;;72.53;26.37;;;-8.10;99.90;;;;;;4988562;28;20315;-74
2024/01/09 06:41:13;;;;;;;71.60;25.73;;;-8.00;99.90;;;;;;4980766;28;20245;-75
2024/01/09 06:43:41;;;;;;;68.20;25.30;;;-8.10;99.90;;;;;;4964943;28;20235;-75
2024/01/09 06:46:10;;;;;;;75.20;27.57;;;-8.00;99.90;;;;;;4983070;28;20229;-74
2024/01/09 06:48:39;;;;;;;78.97;24.97;;;-7.90;99.90;;;;;;4984297;28;20225;-75
2024/01/09 06:51:09;;;;;;;71.37;26.13;;;-7.80;99.90;;;;;;4968679;28;20258;-75
2024/01/09 06:53:38;;;;;;;69.73;24.20;;;-7.90;99.90;;;;;;4995348;28;20220;-76
2024/01/09 06:56:06;;;;;;;80.73;26.27;;;-8.00;99.90;;;;;;4971942;28;20325;-76
2024/01/09 06:58:35;;;;;;;65.97;23.93;;;-8.00;99.90;;;;;;4971497;28;20236;-77
2024/01/09 07:01:05;;;;;;;65.93;25.10;;;-7.80;99.90;;;;;;4967988;28;20563;-75
2024/01/09 07:03:33;;;;;;;68.27;24.60;;;-7.90;99.90;;;;;;4968401;28;20259;-73
2024/01/09 07:06:02;;;;;;;67.07;25.57;;;-7.80;99.90;;;;;;4984429;28;20239;-74
2024/01/09 07:08:32;;;;;;;61.03;24.00;;;-7.90;99.90;;;;;;4982019;28;20237;-74
2024/01/09 07:11:00;;;;;;;74.03;25.60;;;-7.80;99.90;;;;;;4986381;28;20269;-73
2024/01/09 07:13:29;;;;;;;64.60;24.13;;;-8.00;99.90;;;;;;4977941;28;20548;-76
2024/01/09 07:15:58;;;;;;;68.87;25.03;;;-8.00;99.90;;;;;;4979321;28;20228;-77
2024/01/09 07:18:28;;;;;;;63.97;24.67;;;-8.00;99.90;;;;;;4970257;28;20236;-74
2024/01/09 07:20:57;;;;;;;67.80;24.83;;;-8.10;99.90;;;;;;4990622;28;20243;-78
2024/01/09 07:23:26;;;;;;;67.03;24.13;;;-7.90;99.90;;;;;;4994897;28;20224;-71
2024/01/09 07:25:56;;;;;;;66.03;25.27;;;-7.80;99.90;;;;;;4970193;28;20700;-78
2024/01/09 07:28:24;;;;;;;62.90;24.47;;;-7.60;99.90;;;;;;4989131;28;20241;-77
2024/01/09 07:30:57;;;;;;;65.37;24.70;;;-7.70;99.90;;;;;;4994249;28;20232;-79
2024/01/09 07:33:25;;;;;;;66.27;25.30;;;-7.80;99.90;;;;;;4979380;28;21055;-80
2024/01/09 07:35:54;;;;;;;69.77;24.63;;;-7.70;99.90;;;;;;4981909;28;20285;-74
2024/01/09 07:38:24;;;;;;;67.37;23.80;;;-7.60;99.90;;;;;;4967870;28;20253;-73
2024/01/09 07:40:55;;;;;;;64.57;24.87;;;-7.80;99.90;;;;;;4990491;28;20271;-73
2024/01/09 07:43:27;;;;;;;71.70;24.53;;;-7.70;99.90;;;;;;4990015;28;20512;-73
2024/01/09 07:45:56;;;;;;;67.27;25.10;;;-7.70;99.90;;;;;;4972737;28;20226;-73
2024/01/09 07:48:25;;;;;;;59.03;23.87;;;-7.70;99.90;;;;;;4992448;28;20295;-73
2024/01/09 07:50:55;;;;;;;62.47;24.50;;;-7.70;99.90;;;;;;4986792;28;20221;-73
2024/01/09 07:53:24;;;;;;;55.87;23.37;;;-7.70;99.90;;;;;;4968803;28;20338;-72
2024/01/09 07:55:53;;;;;;;68.53;23.57;;;-7.70;99.90;;;;;;4968066;28;20302;-72
2024/01/09 07:58:24;;;;;;;61.27;24.23;;;-7.60;99.90;;;;;;4980137;28;20240;-73
2024/01/09 08:00:53;;;;;;;62.40;21.73;;;-7.40;99.90;;;;;;4963293;28;20232;-72
2024/01/09 08:03:22;;;;;;;61.17;22.67;;;-7.40;99.90;;;;;;4974796;28;20228;-74
2024/01/09 08:05:51;;;;;;;58.17;22.13;;;-7.40;99.90;;;;;;4967316;28;20651;-73
2024/01/09 08:08:20;;;;;;;61.17;22.27;;;-7.40;99.90;;;;;;4967325;28;20351;-73
2024/01/09 08:10:48;;;;;;;59.17;22.00;;;-7.40;99.90;;;;;;4967350;28;20239;-72
2024/01/09 08:13:17;;;;;;;57.93;22.80;;;-7.40;99.90;;;;;;4983551;28;20237;-73
2024/01/09 08:15:47;;;;;;;61.90;21.50;;;-7.40;99.90;;;;;;4968207;28;20249;-72
2024/01/09 08:18:16;;;;;;;56.07;21.53;;;-7.30;99.90;;;;;;4967290;28;20229;-72
2024/01/09 08:20:45;;;;;;;53.97;21.60;;;-7.40;99.90;;;;;;4985293;28;20229;-71
2024/01/09 08:23:14;;;;;;;60.13;23.07;;;-7.30;99.90;;;;;;4986695;28;20720;-73
2024/01/09 08:25:42;;;;;;;64.43;21.93;;;-7.30;99.90;;;;;;4985042;28;20228;-70
2024/01/09 08:28:11;;;;;;;66.93;22.60;;;-7.30;99.90;;;;;;4977393;28;20227;-72
2024/01/09 08:30:40;;;;;;;59.83;22.87;;;-7.20;99.90;;;;;;4961568;28;20239;-71
2024/01/09 08:33:10;;;;;;;61.07;23.73;;;-7.20;99.90;;;;;;4984105;28;20240;-74
2024/01/09 08:35:39;;;;;;;60.43;23.47;;;-7.20;99.90;;;;;;4965716;28;20221;-72
2024/01/09 08:38:08;;;;;;;58.87;22.83;;;-7.20;99.90;;;;;;4990368;28;20630;-70
2024/01/09 08:40:39;;;;;;;62.77;22.97;;;-7.20;99.90;;;;;;4969086;28;20329;-73
2024/01/09 08:43:10;;;;;;;62.20;23.07;;;-7.10;99.90;;;;;;4968735;28;20243;-72
2024/01/09 08:45:39;;;;;;;62.57;24.50;;;-7.10;99.90;;;;;;4983602;28;20705;-73
2024/01/09 08:48:09;;;;;;;70.10;23.60;;;-7.10;99.90;;;;;;4964979;28;20301;-73
2024/01/09 08:50:38;;;;;;;76.20;23.97;;;-7.00;99.90;;;;;;4965854;28;20685;-72
2024/01/09 08:53:06;;;;;;;60.53;24.90;;;-7.00;99.90;;;;;;4981993;28;20217;-73
2024/01/09 08:55:35;;;;;;;66.93;25.47;;;-6.90;99.90;;;;;;4984944;28;20258;-73
2024/01/09 08:58:04;;;;;;;72.27;23.83;;;-6.80;99.90;;;;;;4969040;28;20229;-73
2024/01/09 09:00:32;;;;;;;58.23;24.23;;;-6.80;99.90;;;;;;4977495;28;20319;-73
2024/01/09 09:03:02;;;;;;;67.93;24.33;;;-6.70;99.90;;;;;;4982190;28;20241;-74
2024/01/09 09:05:32;;;;;;;67.03;24.67;;;-6.60;99.90;;;;;;4962424;28;20254;-73
2024/01/09 09:08:05;;;;;;;62.37;23.20;;;-6.50;99.90;;;;;;4974534;28;20224;-73
2024/01/09 09:10:33;;;;;;;64.10;24.50;;;-6.50;99.90;;;;;;4973385;28;20229;-73
2024/01/09 09:13:03;;;;;;;66.67;25.50;;;-6.40;99.90;;;;;;4968379;28;21146;-72
2024/01/09 09:15:32;;;;;;;69.10;25.70;;;-6.30;99.90;;;;;;4963616;28;20234;-73
2024/01/09 09:18:00;;;;;;;70.83;27.03;;;-6.30;99.90;;;;;;4969898;28;20908;-73
2024/01/09 09:20:30;;;;;;;65.57;25.30;;;-6.30;99.90;;;;;;4960408;28;20230;-73
2024/01/09 09:23:00;;;;;;;64.13;24.67;;;-6.20;99.90;;;;;;4973492;28;20231;-73
2024/01/09 09:25:30;;;;;;;61.40;25.70;;;-6.20;99.90;;;;;;4982405;28;20228;-73
2024/01/09 09:27:58;;;;;;;65.13;25.80;;;-6.30;99.90;;;;;;4979717;28;20341;-71
2024/01/09 09:30:28;;;;;;;70.83;26.50;;;-6.30;99.90;;;;;;4980790;28;20249;-73
2024/01/09 09:32:58;;;;;;;72.13;28.17;;;-6.20;99.90;;;;;;4963250;28;20228;-74
2024/01/09 09:35:28;;;;;;;70.47;26.77;;;-6.20;99.90;;;;;;4960042;28;20223;-71
2024/01/09 09:37:57;;;;;;;72.27;26.97;;;-6.10;99.90;;;;;;4986000;28;20259;-73
2024/01/09 09:40:26;;;;;;;75.10;28.00;;;-6.00;99.90;;;;;;4981845;28;20251;-71
2024/01/09 09:42:58;;;;;;;66.73;26.23;;;-6.00;99.90;;;;;;4988110;28;20233;-73
2024/01/09 09:45:38;;;;;;;70.67;25.80;;;-5.80;99.90;;;;;;4967657;28;20264;-73
2024/01/09 09:48:07;;;;;;;70.00;26.27;;;-5.80;99.90;;;;;;4975726;28;20281;-74
2024/01/09 09:50:36;;;;;;;73.93;28.33;;;-5.90;99.90;;;;;;4986829;28;20849;-71
2024/01/09 09:53:05;;;;;;;71.20;27.50;;;-5.90;99.90;;;;;;4983086;28;20234;-74
2024/01/09 09:55:36;;;;;;;73.47;26.63;;;-5.80;99.90;;;;;;4982185;28;20542;-74
2024/01/09 09:58:04;;;;;;;81.87;27.00;;;-5.70;99.90;;;;;;4987821;28;20298;-74
2024/01/09 10:00:33;;;;;;;73.83;26.77;;;-5.70;99.90;;;;;;4966455;28;20262;-73
2024/01/09 10:03:05;;;;;;;65.77;25.53;;;-5.60;99.90;;;;;;4987957;28;20239;-71
2024/01/09 10:05:38;;;;;;;71.60;26.23;;;-5.60;99.90;;;;;;4964241;28;20231;-72
2024/01/09 10:08:08;;;;;;;72.73;27.33;;;-5.50;99.90;;;;;;4968162;28;20225;-72
2024/01/09 10:10:38;;;;;;;67.37;25.30;;;-5.40;99.90;;;;;;4981680;28;20711;-72
2024/01/09 10:13:08;;;;;;;61.73;25.00;;;-5.40;99.90;;;;;;4982994;28;20235;-73
2024/01/09 10:15:55;;;;;;;60.37;24.33;;;-5.40;99.90;;;;;;4980192;28;20253;-70
2024/01/09 10:18:25;;;;;;;57.10;23.83;;;-5.40;99.90;;;;;;4971606;28;20235;-72
2024/01/09 10:20:54;;;;;;;62.63;23.40;;;-5.30;99.90;;;;;;4965913;28;20219;-73
2024/01/09 10:23:23;;;;;;;72.10;26.00;;;-5.20;99.90;;;;;;4987637;28;20223;-70
2024/01/09 10:25:53;;;;;;;74.23;25.60;;;-5.20;99.90;;;;;;4966286;28;20918;-71
2024/01/09 10:28:24;;;;;;;72.63;25.43;;;-5.10;99.90;;;;;;4986045;28;20781;-70
2024/01/09 10:30:54;;;;;;;60.83;24.67;;;-5.10;99.90;;;;;;4960779;28;20232;-71
2024/01/09 10:33:23;;;;;;;56.27;23.10;;;-5.00;99.90;;;;;;4976435;28;20336;-70
2024/01/09 10:35:52;;;;;;;63.07;23.70;;;-4.90;99.90;;;;;;4964981;28;20576;-71
2024/01/09 10:38:24;;;;;;;55.13;22.43;;;-4.90;99.90;;;;;;4980775;28;20242;-71
2024/01/09 10:40:57;;;;;;;63.37;23.63;;;-4.80;99.90;;;;;;4986885;28;20223;-69
2024/01/09 10:43:26;;;;;;;54.03;22.20;;;-4.70;99.90;;;;;;4982924;28;20223;-71
2024/01/09 10:45:55;;;;;;;56.20;21.50;;;-4.70;99.90;;;;;;4981074;28;20240;-70
2024/01/09 10:48:25;;;;;;;53.87;22.37;;;-4.70;99.90;;;;;;4987529;28;20870;-73
2024/01/09 10:50:55;;;;;;;60.40;21.07;;;-4.60;99.90;;;;;;4985913;28;20927;-70
2024/01/09 10:53:24;;;;;;;54.03;20.63;;;-4.50;99.90;;;;;;4989123;28;20222;-72
2024/01/09 10:55:55;;;;;;;62.63;28.23;;;-4.60;99.90;;;;;;4984314;28;20230;-67
2024/01/09 10:58:25;;;;;;;59.40;23.07;;;-4.60;99.90;;;;;;4989939;28;20281;-72
2024/01/09 11:00:54;;;;;;;59.73;24.00;;;-4.50;99.90;;;;;;4986211;28;20246;-73
2024/01/09 11:03:23;;;;;;;63.43;25.53;;;-4.40;99.90;;;;;;4992879;28;20291;-70
2024/01/09 11:05:59;;;;;;;65.97;24.80;;;-4.60;99.90;;;;;;4971931;28;20718;-68
2024/01/09 11:08:32;;;;;;;66.30;24.47;;;-4.50;99.90;;;;;;4963299;28;20333;-70
2024/01/09 11:11:04;;;;;;;57.97;24.30;;;-4.50;99.90;;;;;;4963932;28;20287;-69
2024/01/09 11:13:34;;;;;;;63.90;24.67;;;-4.40;99.90;;;;;;4966682;28;20223;-71
2024/01/09 11:16:05;;;;;;;62.83;27.33;;;-4.30;99.90;;;;;;4986725;28;20230;-70
2024/01/09 11:18:35;;;;;;;73.60;29.90;;;-4.40;99.90;;;;;;4977218;28;20233;-69
2024/01/09 11:21:05;;;;;;;71.97;28.57;;;-4.50;99.90;;;;;;4992253;28;21097;-71
2024/01/09 11:24:00;;;;;;;69.57;28.30;;;-4.40;99.90;;;;;;4986969;28;20228;-69
2024/01/09 11:26:34;;;;;;;78.43;27.63;;;-4.30;99.90;;;;;;4947893;28;20317;-72
2024/01/09 11:29:03;;;;;;;69.80;28.80;;;-4.20;99.90;;;;;;4968252;28;20228;-71
2024/01/09 11:31:35;;;;;;;67.57;27.93;;;-4.10;99.90;;;;;;4979680;28;20227;-70
2024/01/09 11:34:04;;;;;;;61.83;25.73;;;-4.10;99.90;;;;;;4989768;28;20234;-70
2024/01/09 11:36:34;;;;;;;69.40;28.67;;;-4.00;99.90;;;;;;4990663;28;20251;-70
2024/01/09 11:39:03;;;;;;;62.27;25.33;;;-4.00;99.90;;;;;;4971303;28;20231;-67
2024/01/09 11:41:34;;;;;;;64.80;24.57;;;-4.10;99.90;;;;;;4988733;28;20226;-69
2024/01/09 11:44:04;;;;;;;59.43;25.00;;;-4.30;99.90;;;;;;4990932;28;20227;-69
2024/01/09 11:46:34;;;;;;;64.40;25.30;;;-4.30;99.90;;;;;;4986608;28;20328;-68
2024/01/09 11:49:04;;;;;;;66.77;24.47;;;-4.30;99.90;;;;;;4987517;28;20226;-68
2024/01/09 11:51:34;;;;;;;57.20;23.77;;;-4.10;99.90;;;;;;4987756;28;20238;-72
2024/01/09 11:54:05;;;;;;;67.83;23.53;;;-4.10;99.90;;;;;;4971642;28;20222;-68
2024/01/09 11:56:36;;;;;;;47.13;21.70;;;-4.00;99.90;;;;;;4970704;28;20256;-71
2024/01/09 11:59:05;;;;;;;62.70;22.53;;;-3.90;99.90;;;;;;4981296;28;20230;-69
2024/01/09 12:01:33;;;;;;;64.67;22.73;;;-4.00;99.90;;;;;;4978748;28;20222;-70
2024/01/09 12:04:02;;;;;;;54.77;21.77;;;-4.00;99.90;;;;;;4989493;28;20230;-71
2024/01/09 12:06:31;;;;;;;61.53;22.73;;;-3.90;99.90;;;;;;4983995;28;20225;-71
2024/01/09 12:09:00;;;;;;;52.40;20.97;;;-3.90;99.90;;;;;;4987336;28;20253;-69
2024/01/09 12:11:29;;;;;;;49.30;21.13;;;-3.80;99.90;;;;;;4982957;28;20253;-68
2024/01/09 12:14:05;;;;;;;54.30;21.13;;;-3.80;99.90;;;;;;4981413;28;20302;-72
2024/01/09 12:16:34;;;;;;;52.87;20.40;;;-3.70;99.90;;;;;;4966478;28;20223;-70
2024/01/09 12:19:03;;;;;;;54.67;20.77;;;-3.70;99.90;;;;;;4959961;28;20239;-70
2024/01/09 12:21:34;;;;;;;49.73;19.50;;;-3.70;99.90;;;;;;4987061;28;20297;-71
2024/01/09 12:24:05;;;;;;;42.73;17.63;;;-3.60;99.90;;;;;;4978608;28;20611;-70
2024/01/09 12:26:53;;;;;;;43.57;18.07;;;-3.60;99.90;;;;;;4965795;28;20236;-68
2024/01/09 12:29:23;;;;;;;39.77;16.70;;;-3.60;99.90;;;;;;4979777;28;20222;-70
2024/01/09 12:31:52;;;;;;;38.33;16.70;;;-3.70;99.90;;;;;;4981160;28;20224;-69
2024/01/09 12:34:21;;;;;;;39.40;16.97;;;-3.70;99.90;;;;;;4966402;28;20234;-69
2024/01/09 12:36:50;;;;;;;40.70;15.87;;;-3.70;99.90;;;;;;4964763;28;20222;-71